Time;durP1;ratioP1;P1;durP2;ratioP2;P2;SDS_P1;SDS_P2;PMS_P1;PMS_P2;Temp;Humidity;BMP_temperature;BMP_pressure;BME280_temperature;BME280_humidity;BME280_pressure;Samples;Min_cycle;Max_cycle;Signal;HPM_P1;HPM_P2
2024/03/18 00:01:00;;;;;;;;;;;23.00;52.20;;;;;;5078364;28;20305;-62
2024/03/18 00:03:27;;;;;;;;;;;23.00;52.10;;;;;;5080715;28;19930;-62
2024/03/18 00:05:52;;;;;;;;;;;22.90;52.10;;;;;;5078386;28;19909;-63
2024/03/18 00:08:18;;;;;;;;;;;22.90;52.10;;;;;;5078459;28;19904;-63
2024/03/18 00:10:43;;;;;;;;;;;22.90;52.10;;;;;;5077948;28;19954;-62
2024/03/18 00:13:09;;;;;;;;;;;22.90;52.10;;;;;;5077271;28;19927;-64
2024/03/18 00:15:34;;;;;;;;;;;22.90;52.10;;;;;;5079824;28;19908;-62
2024/03/18 00:18:00;;;;;;;;;;;22.90;52.10;;;;;;5077987;28;19994;-62
2024/03/18 00:20:25;;;;;;;;;;;22.90;52.10;;;;;;5080527;28;19920;-62
2024/03/18 00:22:51;;;;;;;;;;;22.90;52.10;;;;;;5078500;28;20257;-63
2024/03/18 00:25:16;;;;;;;;;;;22.90;52.10;;;;;;5080708;28;19923;-62
2024/03/18 00:27:42;;;;;;;;;;;22.80;52.00;;;;;;5081702;28;19904;-62
2024/03/18 00:30:11;;;;;;;;;;;22.90;52.10;;;;;;5078919;28;20006;-63
2024/03/18 00:32:39;;;;;;;;;;;22.80;52.10;;;;;;5082383;28;20042;-62
2024/03/18 00:35:05;;;;;;;;;;;22.80;52.60;;;;;;5081146;28;19904;-63
2024/03/18 00:37:31;;;;;;;;;;;22.80;52.10;;;;;;5079661;28;19912;-62
2024/03/18 00:39:56;;;;;;;;;;;22.80;52.10;;;;;;5080423;28;19935;-62
2024/03/18 00:42:22;;;;;;;;;;;22.80;52.10;;;;;;5081910;28;19912;-63
2024/03/18 00:44:47;;;;;;;;;;;22.80;52.10;;;;;;5081297;28;20380;-62
2024/03/18 00:47:13;;;;;;;;;;;22.80;52.10;;;;;;5079586;28;19909;-63
2024/03/18 00:49:38;;;;;;;;;;;22.80;52.10;;;;;;5080946;28;20022;-65
2024/03/18 00:52:04;;;;;;;;;;;22.80;52.10;;;;;;5080610;28;19942;-65
2024/03/18 00:54:30;;;;;;;;;;;22.70;52.10;;;;;;5095740;28;20003;-65
2024/03/18 00:56:55;;;;;;;;;;;22.70;52.10;;;;;;5080343;28;20049;-65
2024/03/18 00:59:21;;;;;;;;;;;22.70;52.10;;;;;;5081168;28;20049;-63
2024/03/18 01:01:47;;;;;;;;;;;22.70;52.10;;;;;;5081651;28;19916;-63
2024/03/18 01:04:13;;;;;;;;;;;22.70;52.10;;;;;;5082382;28;19912;-63
2024/03/18 01:06:38;;;;;;;;;;;22.70;52.10;;;;;;5080592;28;20046;-62
2024/03/18 01:09:04;;;;;;;;;;;22.70;52.10;;;;;;5079907;28;20607;-62
2024/03/18 01:11:30;;;;;;;;;;;22.70;52.10;;;;;;5072129;28;19957;-63
2024/03/18 01:13:55;;;;;;;;;;;22.70;52.10;;;;;;5075471;28;19904;-62
2024/03/18 01:16:21;;;;;;;;;;;22.70;52.10;;;;;;5079411;28;20225;-63
2024/03/18 01:18:48;;;;;;;;;;;22.70;52.10;;;;;;5079450;28;20384;-65
2024/03/18 01:21:13;;;;;;;;;;;22.70;52.10;;;;;;5082861;28;19954;-65
2024/03/18 01:23:39;;;;;;;;;;;22.70;52.10;;;;;;5079997;28;19923;-65
2024/03/18 01:26:05;;;;;;;;;;;22.60;52.10;;;;;;5081848;28;19922;-65
2024/03/18 01:28:30;;;;;;;;;;;22.60;52.10;;;;;;5079672;28;19958;-65
2024/03/18 01:30:57;;;;;;;;;;;22.60;52.10;;;;;;5082848;28;19904;-65
2024/03/18 01:33:22;;;;;;;;;;;22.60;52.10;;;;;;5081664;28;20403;-65
2024/03/18 01:35:49;;;;;;;;;;;22.60;52.10;;;;;;5080610;28;19943;-65
2024/03/18 01:38:14;;;;;;;;;;;22.60;52.10;;;;;;5078571;28;19908;-65
2024/03/18 01:40:41;;;;;;;;;;;22.60;52.10;;;;;;5080810;28;19912;-65
2024/03/18 01:43:08;;;;;;;;;;;22.60;52.10;;;;;;5080600;28;19916;-65
2024/03/18 01:45:34;;;;;;;;;;;22.60;52.10;;;;;;5079175;28;19931;-65
2024/03/18 01:47:59;;;;;;;;;;;22.60;52.10;;;;;;5080357;28;19908;-65
2024/03/18 01:50:25;;;;;;;;;;;22.60;52.10;;;;;;5080975;28;19911;-65
2024/03/18 01:52:51;;;;;;;;;;;22.50;52.10;;;;;;5078548;28;19909;-65
2024/03/18 01:55:16;;;;;;;;;;;22.60;52.10;;;;;;5081535;28;19911;-65
2024/03/18 01:57:43;;;;;;;;;;;22.50;52.10;;;;;;5081429;28;20706;-65
2024/03/18 02:00:15;;;;;;;;;;;22.50;52.10;;;;;;5079602;28;20264;-63
2024/03/18 02:02:44;;;;;;;;;;;22.50;52.10;;;;;;5082115;28;20676;-63
2024/03/18 02:05:10;;;;;;;;;;;22.50;52.10;;;;;;5078735;28;19908;-62
2024/03/18 02:07:36;;;;;;;;;;;22.50;52.10;;;;;;5079610;28;20395;-62
2024/03/18 02:10:03;;;;;;;;;;;22.50;52.10;;;;;;5080852;28;19915;-62
2024/03/18 02:12:29;;;;;;;;;;;22.50;52.10;;;;;;5081375;28;20399;-62
2024/03/18 02:14:54;;;;;;;;;;;22.50;52.10;;;;;;5082065;28;19995;-62
2024/03/18 02:17:20;;;;;;;;;;;22.50;52.10;;;;;;5079758;28;19905;-63
2024/03/18 02:19:46;;;;;;;;;;;22.50;52.10;;;;;;5080812;28;19916;-63
2024/03/18 02:22:12;;;;;;;;;;;22.40;52.00;;;;;;5079103;28;20024;-63
2024/03/18 02:24:38;;;;;;;;;;;22.40;52.00;;;;;;5078743;28;19915;-62
2024/03/18 02:27:04;;;;;;;;;;;22.40;52.10;;;;;;5078959;28;19904;-62
2024/03/18 02:29:29;;;;;;;;;;;22.40;52.10;;;;;;5082658;28;20415;-62
2024/03/18 02:31:55;;;;;;;;;;;22.40;52.10;;;;;;5080527;28;20015;-62
2024/03/18 02:34:20;;;;;;;;;;;22.40;52.10;;;;;;5080116;28;19915;-62
2024/03/18 02:36:46;;;;;;;;;;;22.40;52.10;;;;;;5081963;28;19903;-62
2024/03/18 02:39:12;;;;;;;;;;;22.40;52.10;;;;;;5076511;28;19908;-62
2024/03/18 02:41:37;;;;;;;;;;;22.40;52.10;;;;;;5080918;28;20277;-62
2024/03/18 02:44:03;;;;;;;;;;;22.40;52.10;;;;;;5080374;28;19950;-62
2024/03/18 02:46:28;;;;;;;;;;;22.40;52.10;;;;;;5078732;28;20033;-62
2024/03/18 02:48:54;;;;;;;;;;;22.40;52.10;;;;;;5078754;28;20333;-62
2024/03/18 02:51:19;;;;;;;;;;;22.40;52.10;;;;;;5078936;28;19912;-63
2024/03/18 02:53:45;;;;;;;;;;;22.40;52.10;;;;;;5078318;28;19904;-62
2024/03/18 02:56:10;;;;;;;;;;;22.40;52.10;;;;;;5079624;28;20299;-62
2024/03/18 02:58:36;;;;;;;;;;;22.40;52.20;;;;;;5079791;28;19993;-63
2024/03/18 03:01:01;;;;;;;;;;;22.30;52.10;;;;;;5080930;28;20388;-62
2024/03/18 03:03:27;;;;;;;;;;;22.30;52.10;;;;;;5081756;28;19923;-62
2024/03/18 03:05:52;;;;;;;;;;;22.40;52.20;;;;;;5078358;28;19911;-63
2024/03/18 03:08:22;;;;;;;;;;;22.30;52.10;;;;;;5078259;28;19908;-62
2024/03/18 03:10:48;;;;;;;;;;;22.30;52.10;;;;;;5077582;28;19912;-62
2024/03/18 03:13:13;;;;;;;;;;;22.30;52.10;;;;;;5078116;28;19908;-62
2024/03/18 03:15:39;;;;;;;;;;;22.30;52.20;;;;;;5078055;28;20399;-62
2024/03/18 03:18:04;;;;;;;;;;;22.30;52.10;;;;;;5081044;28;20003;-63
2024/03/18 03:20:33;;;;;;;;;;;22.30;52.10;;;;;;5076625;28;19912;-65
2024/03/18 03:22:58;;;;;;;;;;;22.30;52.20;;;;;;5079496;28;19908;-64
2024/03/18 03:25:26;;;;;;;;;;;22.30;52.10;;;;;;5095804;28;19924;-64
2024/03/18 03:27:56;;;;;;;;;;;22.30;52.20;;;;;;5080648;28;19995;-65
2024/03/18 03:30:21;;;;;;;;;;;22.30;52.10;;;;;;5076625;28;19904;-65
2024/03/18 03:32:47;;;;;;;;;;;22.30;52.10;;;;;;5078647;28;19930;-65
2024/03/18 03:35:12;;;;;;;;;;;22.30;52.20;;;;;;5060256;28;19911;-65
2024/03/18 03:37:38;;;;;;;;;;;22.30;52.20;;;;;;5077708;28;19904;-65
2024/03/18 03:40:04;;;;;;;;;;;22.30;52.20;;;;;;5077471;28;20202;-62
2024/03/18 03:42:29;;;;;;;;;;;22.20;52.10;;;;;;5079996;28;19911;-62
2024/03/18 03:44:55;;;;;;;;;;;22.30;52.20;;;;;;5078192;28;19908;-63
2024/03/18 03:47:20;;;;;;;;;;;22.20;52.10;;;;;;5078999;28;19975;-62
2024/03/18 03:49:46;;;;;;;;;;;22.30;52.20;;;;;;5078638;28;19943;-62
2024/03/18 03:52:12;;;;;;;;;;;22.30;52.20;;;;;;5079776;28;20275;-62
2024/03/18 03:54:37;;;;;;;;;;;22.20;52.20;;;;;;5075858;28;19913;-62
2024/03/18 03:57:03;;;;;;;;;;;22.20;52.20;;;;;;5084411;28;19904;-62
2024/03/18 03:59:28;;;;;;;;;;;22.20;52.20;;;;;;5083951;28;19904;-63
2024/03/18 04:01:54;;;;;;;;;;;22.20;52.20;;;;;;5083229;28;19908;-62
2024/03/18 04:04:20;;;;;;;;;;;22.20;52.20;;;;;;5082469;28;19908;-62
2024/03/18 04:06:46;;;;;;;;;;;22.20;52.20;;;;;;5083090;28;19904;-63
2024/03/18 04:09:11;;;;;;;;;;;22.20;52.20;;;;;;5081721;28;19908;-62
2024/03/18 04:11:37;;;;;;;;;;;22.20;52.20;;;;;;5084302;28;19908;-63
2024/03/18 04:14:03;;;;;;;;;;;22.20;52.20;;;;;;5081795;28;19935;-62
2024/03/18 04:16:29;;;;;;;;;;;22.20;52.20;;;;;;5061988;28;19943;-63
2024/03/18 04:18:54;;;;;;;;;;;22.20;52.20;;;;;;5083049;28;20006;-62
2024/03/18 04:21:20;;;;;;;;;;;22.20;52.30;;;;;;5082413;28;19927;-62
2024/03/18 04:23:46;;;;;;;;;;;22.20;52.20;;;;;;5080966;28;19977;-63
2024/03/18 04:26:12;;;;;;;;;;;22.20;52.30;;;;;;5081792;28;20014;-62
2024/03/18 04:28:38;;;;;;;;;;;22.10;52.20;;;;;;5084957;28;19968;-62
2024/03/18 04:31:07;;;;;;;;;;;22.10;52.20;;;;;;5083576;28;19908;-62
2024/03/18 04:33:34;;;;;;;;;;;22.10;52.20;;;;;;5081305;28;19908;-62
2024/03/18 04:36:00;;;;;;;;;;;22.10;52.20;;;;;;5080677;28;19909;-63
2024/03/18 04:38:26;;;;;;;;;;;22.10;52.20;;;;;;5081668;28;19915;-63
2024/03/18 04:40:51;;;;;;;;;;;22.10;52.20;;;;;;5080068;28;19908;-62
2024/03/18 04:43:17;;;;;;;;;;;22.10;52.20;;;;;;5083233;28;20346;-62
2024/03/18 04:45:43;;;;;;;;;;;22.10;52.20;;;;;;5061746;28;19911;-63
2024/03/18 04:48:10;;;;;;;;;;;22.10;52.20;;;;;;5082215;28;19904;-63
2024/03/18 04:50:35;;;;;;;;;;;22.10;52.20;;;;;;5083212;28;20263;-62
2024/03/18 04:53:01;;;;;;;;;;;22.10;52.20;;;;;;5081285;28;19904;-62
2024/03/18 04:55:26;;;;;;;;;;;22.10;52.30;;;;;;5079919;28;19915;-63
2024/03/18 04:57:55;;;;;;;;;;;22.10;52.30;;;;;;5082685;28;19915;-63
2024/03/18 05:00:21;;;;;;;;;;;22.10;52.30;;;;;;5083867;28;20323;-62
2024/03/18 05:02:46;;;;;;;;;;;22.10;52.30;;;;;;5079338;28;19966;-63
2024/03/18 05:05:13;;;;;;;;;;;22.10;52.30;;;;;;5080517;28;19908;-63
2024/03/18 05:07:39;;;;;;;;;;;22.10;52.30;;;;;;5081457;28;19904;-63
2024/03/18 05:10:05;;;;;;;;;;;22.10;52.30;;;;;;5079633;28;20356;-62
2024/03/18 05:12:30;;;;;;;;;;;22.10;52.30;;;;;;5079559;28;19915;-62
2024/03/18 05:14:57;;;;;;;;;;;22.10;52.30;;;;;;5080527;28;19912;-62
2024/03/18 05:17:24;;;;;;;;;;;22.00;52.30;;;;;;5084806;28;19908;-62
2024/03/18 05:19:49;;;;;;;;;;;22.00;52.30;;;;;;5081101;28;20373;-62
2024/03/18 05:22:15;;;;;;;;;;;22.00;52.30;;;;;;5080600;28;19999;-62
2024/03/18 05:24:43;;;;;;;;;;;22.00;52.30;;;;;;5078734;28;19935;-63
2024/03/18 05:27:12;;;;;;;;;;;22.00;52.30;;;;;;5079966;28;19998;-64
2024/03/18 05:29:38;;;;;;;;;;;22.00;52.30;;;;;;5081820;28;19994;-63
2024/03/18 05:32:08;;;;;;;;;;;22.00;52.40;;;;;;5079030;28;19995;-62
2024/03/18 05:34:33;;;;;;;;;;;22.00;52.40;;;;;;5080509;28;20315;-62
2024/03/18 05:36:59;;;;;;;;;;;22.00;52.40;;;;;;5081543;28;19904;-62
2024/03/18 05:39:25;;;;;;;;;;;22.00;52.40;;;;;;5079366;28;20304;-62
2024/03/18 05:41:50;;;;;;;;;;;22.00;52.40;;;;;;5063447;28;19954;-62
2024/03/18 05:44:16;;;;;;;;;;;22.00;52.40;;;;;;5079432;28;19915;-62
2024/03/18 05:46:41;;;;;;;;;;;22.00;52.40;;;;;;5096612;28;20302;-63
2024/03/18 05:49:07;;;;;;;;;;;22.00;52.50;;;;;;5082128;28;20364;-62
2024/03/18 05:51:32;;;;;;;;;;;22.00;52.50;;;;;;5078980;28;19908;-62
2024/03/18 05:53:58;;;;;;;;;;;22.00;52.50;;;;;;5081011;28;20333;-63
2024/03/18 05:56:23;;;;;;;;;;;22.00;52.40;;;;;;5077646;28;19944;-62
2024/03/18 05:58:52;;;;;;;;;;;22.00;52.40;;;;;;5083629;28;19908;-62
2024/03/18 06:01:17;;;;;;;;;;;22.00;52.40;;;;;;5081324;28;20391;-62
2024/03/18 06:03:45;;;;;;;;;;;22.00;52.40;;;;;;5080231;28;19908;-62
2024/03/18 06:06:11;;;;;;;;;;;22.00;52.40;;;;;;5079804;28;19908;-63
2024/03/18 06:08:37;;;;;;;;;;;22.00;52.40;;;;;;5082772;28;19911;-62
2024/03/18 06:11:03;;;;;;;;;;;22.00;52.50;;;;;;5079034;28;20412;-62
2024/03/18 06:13:28;;;;;;;;;;;22.00;52.70;;;;;;5081834;28;19909;-64
2024/03/18 06:15:54;;;;;;;;;;;22.00;52.70;;;;;;5078797;28;20321;-62
2024/03/18 06:18:20;;;;;;;;;;;22.00;53.00;;;;;;5080765;28;19998;-62
2024/03/18 06:20:49;;;;;;;;;;;22.00;52.90;;;;;;5077694;28;20331;-62
2024/03/18 06:23:18;;;;;;;;;;;22.00;52.80;;;;;;5078491;28;20352;-63
2024/03/18 06:25:59;;;;;;;;;;;22.00;52.80;;;;;;5076644;28;19904;-63
2024/03/18 06:28:26;;;;;;;;;;;22.00;52.80;;;;;;5078968;28;19987;-62
2024/03/18 06:30:51;;;;;;;;;;;22.00;52.80;;;;;;5078641;28;19908;-62
2024/03/18 06:33:18;;;;;;;;;;;22.00;52.70;;;;;;5077542;28;20621;-63
2024/03/18 06:35:45;;;;;;;;;;;22.10;52.80;;;;;;5080033;28;19919;-62
2024/03/18 06:38:11;;;;;;;;;;;22.10;52.70;;;;;;5080478;28;19907;-62
2024/03/18 06:40:36;;;;;;;;;;;22.10;52.60;;;;;;5078031;28;19909;-62
2024/03/18 06:43:02;;;;;;;;;;;22.10;52.60;;;;;;5078221;28;19916;-62
2024/03/18 06:45:28;;;;;;;;;;;22.10;52.60;;;;;;5078799;28;19934;-64
2024/03/18 06:47:53;;;;;;;;;;;22.20;52.60;;;;;;5079698;28;20360;-63
2024/03/18 06:50:20;;;;;;;;;;;22.20;52.50;;;;;;5080981;28;19908;-63
2024/03/18 06:52:45;;;;;;;;;;;22.20;52.50;;;;;;5079516;28;19912;-62
2024/03/18 06:55:11;;;;;;;;;;;22.20;52.40;;;;;;5078692;28;19912;-62
2024/03/18 06:57:36;;;;;;;;;;;22.20;52.40;;;;;;5080837;28;19904;-62
2024/03/18 07:00:06;;;;;;;;;;;22.20;52.40;;;;;;5081056;28;20422;-63
2024/03/18 07:02:32;;;;;;;;;;;22.30;52.40;;;;;;5079949;28;19912;-62
2024/03/18 07:04:57;;;;;;;;;;;22.30;52.30;;;;;;5079194;28;19957;-62
2024/03/18 07:07:23;;;;;;;;;;;22.30;52.30;;;;;;5080680;28;19984;-62
2024/03/18 07:09:52;;;;;;;;;;;22.30;52.30;;;;;;5079306;28;19911;-64
2024/03/18 07:12:18;;;;;;;;;;;22.30;52.20;;;;;;5080918;28;20133;-65
2024/03/18 07:14:44;;;;;;;;;;;22.30;52.20;;;;;;5075977;28;19911;-64
2024/03/18 07:17:10;;;;;;;;;;;22.40;52.20;;;;;;5079975;28;19915;-65
2024/03/18 07:19:35;;;;;;;;;;;22.40;52.10;;;;;;5080335;28;19912;-65
2024/03/18 07:22:01;;;;;;;;;;;22.40;52.10;;;;;;5079084;28;19914;-65
2024/03/18 07:24:27;;;;;;;;;;;22.40;52.00;;;;;;5078426;28;19912;-65
2024/03/18 07:26:53;;;;;;;;;;;22.40;52.00;;;;;;5061177;28;19909;-65
2024/03/18 07:29:19;;;;;;;;;;;22.40;52.00;;;;;;5077912;28;19915;-65
2024/03/18 07:31:45;;;;;;;;;;;22.40;51.90;;;;;;5080501;28;20003;-65
2024/03/18 07:34:12;;;;;;;;;;;22.50;52.00;;;;;;5079700;28;20015;-65
2024/03/18 07:36:39;;;;;;;;;;;22.50;52.00;;;;;;5078834;28;20440;-65
2024/03/18 07:39:05;;;;;;;;;;;22.50;51.90;;;;;;5080143;28;19912;-65
2024/03/18 07:41:31;;;;;;;;;;;22.50;51.80;;;;;;5078136;28;19908;-65
2024/03/18 07:43:56;;;;;;;;;;;22.50;51.80;;;;;;5093756;28;20356;-66
2024/03/18 07:46:23;;;;;;;;;;;22.60;51.80;;;;;;5080256;28;20356;-65
2024/03/18 07:48:48;;;;;;;;;;;22.60;51.80;;;;;;5079361;28;20374;-65
2024/03/18 07:51:14;;;;;;;;;;;22.60;51.80;;;;;;5078819;28;19908;-65
2024/03/18 07:53:40;;;;;;;;;;;22.60;51.70;;;;;;5079819;28;20319;-65
2024/03/18 07:56:05;;;;;;;;;;;22.60;51.70;;;;;;5077783;28;19947;-66
2024/03/18 07:58:31;;;;;;;;;;;22.60;51.60;;;;;;5079125;28;19935;-65
2024/03/18 08:00:56;;;;;;;;;;;22.60;51.60;;;;;;5059363;28;20043;-63
2024/03/18 08:03:23;;;;;;;;;;;22.60;51.60;;;;;;5078146;28;20028;-62
2024/03/18 08:05:49;;;;;;;;;;;22.60;51.60;;;;;;5077968;28;19970;-62
2024/03/18 08:08:15;;;;;;;;;;;22.60;51.50;;;;;;5075755;28;19910;-62
2024/03/18 08:10:40;;;;;;;;;;;22.60;51.50;;;;;;5076878;28;19995;-62
2024/03/18 08:13:07;;;;;;;;;;;22.70;51.60;;;;;;5078319;28;20368;-63
2024/03/18 08:15:33;;;;;;;;;;;22.70;51.50;;;;;;5077273;28;19908;-62
2024/03/18 08:17:58;;;;;;;;;;;22.70;51.50;;;;;;5080212;28;19917;-63
2024/03/18 08:20:24;;;;;;;;;;;22.70;51.50;;;;;;5078697;28;20234;-63
2024/03/18 08:22:49;;;;;;;;;;;22.70;51.50;;;;;;5078047;28;20404;-62
2024/03/18 08:25:15;;;;;;;;;;;22.70;51.40;;;;;;5078457;28;19904;-63
2024/03/18 08:27:42;;;;;;;;;;;22.70;51.50;;;;;;5078090;28;19904;-62
2024/03/18 08:30:08;;;;;;;;;;;22.70;51.50;;;;;;5075919;28;19911;-63
2024/03/18 08:32:34;;;;;;;;;;;22.80;51.40;;;;;;5076046;28;19908;-62
2024/03/18 08:35:00;;;;;;;;;;;22.80;51.40;;;;;;5077517;28;19907;-63
2024/03/18 08:37:26;;;;;;;;;;;22.80;51.40;;;;;;5079468;28;19999;-62
2024/03/18 08:39:54;;;;;;;;;;;22.80;51.30;;;;;;5078470;28;20420;-62
2024/03/18 08:42:20;;;;;;;;;;;22.90;51.30;;;;;;5079915;28;19958;-62
2024/03/18 08:44:48;;;;;;;;;;;23.00;51.30;;;;;;5083260;28;20331;-62
2024/03/18 08:47:13;;;;;;;;;;;23.00;51.20;;;;;;5082567;28;19999;-63
2024/03/18 08:49:39;;;;;;;;;;;23.00;51.00;;;;;;5082830;28;20332;-63
2024/03/18 08:52:05;;;;;;;;;;;23.00;51.00;;;;;;5082897;28;20267;-62
2024/03/18 08:54:30;;;;;;;;;;;23.00;50.90;;;;;;5080373;28;19904;-62
2024/03/18 08:56:56;;;;;;;;;;;23.00;50.90;;;;;;5079754;28;19912;-62
2024/03/18 08:59:22;;;;;;;;;;;23.00;50.90;;;;;;5083493;28;19915;-63
2024/03/18 09:01:48;;;;;;;;;;;23.00;50.90;;;;;;5078849;28;19923;-62
2024/03/18 09:04:14;;;;;;;;;;;23.00;50.90;;;;;;5081877;28;19915;-62
2024/03/18 09:06:39;;;;;;;;;;;23.00;51.00;;;;;;5081848;28;20337;-63
2024/03/18 09:09:06;;;;;;;;;;;23.00;50.90;;;;;;5080135;28;20026;-62
2024/03/18 09:11:32;;;;;;;;;;;23.00;50.90;;;;;;5078852;28;19908;-63
2024/03/18 09:13:58;;;;;;;;;;;23.00;50.80;;;;;;5081295;28;20315;-63
2024/03/18 09:16:24;;;;;;;;;;;23.00;50.90;;;;;;5082423;28;19904;-62
2024/03/18 09:18:49;;;;;;;;;;;23.10;50.80;;;;;;5081347;28;20277;-62
2024/03/18 09:21:16;;;;;;;;;;;23.00;50.80;;;;;;5080009;28;20368;-62
2024/03/18 09:23:42;;;;;;;;;;;23.00;50.80;;;;;;5082001;28;20451;-62
2024/03/18 09:26:07;;;;;;;;;;;23.00;50.80;;;;;;5078114;28;19908;-63
2024/03/18 09:28:33;;;;;;;;;;;23.00;50.80;;;;;;5082147;28;19919;-62
2024/03/18 09:31:02;;;;;;;;;;;23.00;50.80;;;;;;5081763;28;20062;-65
2024/03/18 09:33:30;;;;;;;;;;;23.10;50.90;;;;;;5082073;28;19950;-65
2024/03/18 09:35:56;;;;;;;;;;;23.10;50.80;;;;;;5081286;28;19904;-65
2024/03/18 09:38:22;;;;;;;;;;;23.10;50.80;;;;;;5080003;28;20198;-65
2024/03/18 09:40:47;;;;;;;;;;;23.10;50.80;;;;;;5061017;28;20350;-65
2024/03/18 09:43:13;;;;;;;;;;;23.10;50.80;;;;;;5079414;28;19912;-65
2024/03/18 09:45:38;;;;;;;;;;;23.10;50.80;;;;;;5080866;28;19954;-65
2024/03/18 09:48:04;;;;;;;;;;;23.10;50.70;;;;;;5064514;28;20365;-66
2024/03/18 09:50:31;;;;;;;;;;;23.10;50.70;;;;;;5082043;28;19908;-65
2024/03/18 09:52:56;;;;;;;;;;;23.10;50.70;;;;;;5080061;28;19915;-65
2024/03/18 09:55:24;;;;;;;;;;;23.10;50.70;;;;;;5080262;28;19904;-65
2024/03/18 09:57:50;;;;;;;;;;;23.10;50.60;;;;;;5079013;28;20399;-65
2024/03/18 10:00:17;;;;;;;;;;;23.10;50.60;;;;;;5082083;28;19914;-65
2024/03/18 10:02:43;;;;;;;;;;;23.10;50.80;;;;;;5080640;28;19916;-65
2024/03/18 10:05:09;;;;;;;;;;;23.10;50.80;;;;;;5078045;28;19908;-65
2024/03/18 10:07:40;;;;;;;;;;;23.20;50.80;;;;;;5080638;28;20378;-65
2024/03/18 10:10:12;;;;;;;;;;;23.10;50.80;;;;;;5079915;28;20809;-66
2024/03/18 10:12:39;;;;;;;;;;;23.10;50.70;;;;;;5078240;28;20332;-65
2024/03/18 10:15:05;;;;;;;;;;;23.20;50.70;;;;;;5079778;28;19916;-66
2024/03/18 10:17:30;;;;;;;;;;;23.20;50.70;;;;;;5079334;28;19974;-65
2024/03/18 10:19:57;;;;;;;;;;;23.20;50.60;;;;;;5080179;28;19999;-63
2024/03/18 10:22:23;;;;;;;;;;;23.20;50.60;;;;;;5079375;28;19908;-62
2024/03/18 10:24:49;;;;;;;;;;;23.20;50.60;;;;;;5080711;28;20066;-62
2024/03/18 10:27:15;;;;;;;;;;;23.20;50.50;;;;;;5079200;28;20320;-62
2024/03/18 10:29:40;;;;;;;;;;;23.20;50.50;;;;;;5078940;28;20397;-62
2024/03/18 10:32:29;;;;;;;;;;;23.20;50.50;;;;;;5063020;28;19973;-62
2024/03/18 10:34:59;;;;;;;;;;;23.20;50.50;;;;;;5071288;28;19911;-63
2024/03/18 10:37:26;;;;;;;;;;;23.20;50.40;;;;;;5081856;28;20360;-62
2024/03/18 10:40:08;;;;;;;;;;;23.20;50.30;;;;;;5079981;28;19954;-65
2024/03/18 10:42:39;;;;;;;;;;;23.20;50.30;;;;;;5078004;28;19916;-65
2024/03/18 10:45:10;;;;;;;;;;;23.20;50.40;;;;;;5080737;28;20013;-66
2024/03/18 10:47:36;;;;;;;;;;;23.20;50.30;;;;;;5080208;28;19908;-65
2024/03/18 10:50:02;;;;;;;;;;;23.20;50.30;;;;;;5080004;28;20331;-65
2024/03/18 10:52:30;;;;;;;;;;;23.20;50.30;;;;;;5079254;28;20003;-65
2024/03/18 10:54:55;;;;;;;;;;;23.30;50.40;;;;;;5078577;28;19911;-65
2024/03/18 10:57:21;;;;;;;;;;;23.30;50.30;;;;;;5078373;28;19924;-65
2024/03/18 10:59:47;;;;;;;;;;;23.30;50.40;;;;;;5094894;28;19915;-65
2024/03/18 11:02:12;;;;;;;;;;;23.30;50.40;;;;;;5079129;28;20677;-65
2024/03/18 11:04:39;;;;;;;;;;;23.30;50.30;;;;;;5080603;28;19991;-65
2024/03/18 11:07:05;;;;;;;;;;;23.30;50.40;;;;;;5077407;28;19944;-66
2024/03/18 11:09:30;;;;;;;;;;;23.30;50.40;;;;;;5076223;28;19974;-66
2024/03/18 11:11:56;;;;;;;;;;;23.30;50.40;;;;;;5076948;28;20309;-66
2024/03/18 11:14:25;;;;;;;;;;;23.30;50.40;;;;;;5081975;28;20406;-65
2024/03/18 11:16:51;;;;;;;;;;;23.30;50.30;;;;;;5078993;28;19915;-66
2024/03/18 11:19:16;;;;;;;;;;;23.30;50.30;;;;;;5078098;28;19916;-66
2024/03/18 11:21:42;;;;;;;;;;;23.30;50.30;;;;;;5077103;28;19961;-65
2024/03/18 11:24:07;;;;;;;;;;;23.30;50.20;;;;;;5078667;28;19981;-65
2024/03/18 11:26:39;;;;;;;;;;;23.30;50.20;;;;;;5079671;28;20268;-65
2024/03/18 11:29:09;;;;;;;;;;;23.30;50.20;;;;;;5076587;28;19918;-65
2024/03/18 11:31:35;;;;;;;;;;;23.30;50.10;;;;;;5079015;28;20002;-63
2024/03/18 11:34:05;;;;;;;;;;;23.30;50.20;;;;;;5079154;28;19904;-62
2024/03/18 11:36:35;;;;;;;;;;;23.30;50.10;;;;;;5076320;28;20364;-63
2024/03/18 11:39:01;;;;;;;;;;;23.30;50.10;;;;;;5078529;28;19912;-63
2024/03/18 11:41:27;;;;;;;;;;;23.30;50.60;;;;;;5078378;28;19904;-62
2024/03/18 11:43:52;;;;;;;;;;;23.30;50.00;;;;;;5091976;28;19912;-63
2024/03/18 11:46:18;;;;;;;;;;;23.30;50.10;;;;;;5079860;28;19982;-63
2024/03/18 11:48:43;;;;;;;;;;;23.30;50.00;;;;;;5079685;28;19919;-63
2024/03/18 11:51:09;;;;;;;;;;;23.30;50.00;;;;;;5077467;28;19908;-65
2024/03/18 11:53:34;;;;;;;;;;;23.40;50.00;;;;;;5074744;28;19912;-65
2024/03/18 11:56:00;;;;;;;;;;;23.40;50.00;;;;;;5076901;28;19904;-65
2024/03/18 11:58:26;;;;;;;;;;;23.40;50.10;;;;;;5078357;28;19919;-65
2024/03/18 12:00:52;;;;;;;;;;;23.40;50.00;;;;;;5077031;28;19908;-65
2024/03/18 12:03:17;;;;;;;;;;;23.40;50.00;;;;;;5078077;28;19915;-65
2024/03/18 12:05:44;;;;;;;;;;;23.40;50.00;;;;;;5077708;28;20380;-65
2024/03/18 12:08:25;;;;;;;;;;;23.40;50.00;;;;;;5077384;28;20284;-65
2024/03/18 12:10:54;;;;;;;;;;;23.40;50.00;;;;;;5079262;28;20023;-66
2024/03/18 12:13:27;;;;;;;;;;;23.40;49.90;;;;;;5078056;28;19962;-65
2024/03/18 12:15:54;;;;;;;;;;;23.40;49.90;;;;;;5081610;28;20403;-65
2024/03/18 12:18:19;;;;;;;;;;;23.40;50.00;;;;;;5082533;28;19908;-65
2024/03/18 12:20:52;;;;;;;;;;;23.40;50.00;;;;;;5082705;28;19905;-66
2024/03/18 12:28:32;;;;;;;;;;;23.40;50.00;;;;;;5081663;28;20414;-65
2024/03/18 12:28:50;;;;;;;;;;;23.40;50.00;;;;;;5080326;28;20271;-66
2024/03/18 12:31:21;;;;;;;;;;;23.50;50.00;;;;;;5082815;28;19942;-66
2024/03/18 12:33:47;;;;;;;;;;;23.50;50.00;;;;;;5084584;28;19908;-65
2024/03/18 12:36:13;;;;;;;;;;;23.40;50.00;;;;;;5079868;28;19959;-66
2024/03/18 12:38:39;;;;;;;;;;;23.50;50.00;;;;;;5082198;28;19912;-66
2024/03/18 12:41:05;;;;;;;;;;;23.50;50.10;;;;;;5080091;28;20385;-63
2024/03/18 12:43:31;;;;;;;;;;;23.50;50.10;;;;;;5080460;28;19912;-62
2024/03/18 12:45:57;;;;;;;;;;;23.50;50.10;;;;;;5082492;28;20280;-63
2024/03/18 12:48:24;;;;;;;;;;;23.50;50.10;;;;;;5083140;28;19950;-62
2024/03/18 12:50:50;;;;;;;;;;;23.50;50.00;;;;;;5082496;28;20267;-62
2024/03/18 12:53:16;;;;;;;;;;;23.50;50.00;;;;;;5082974;28;19905;-63
2024/03/18 12:55:41;;;;;;;;;;;23.50;50.00;;;;;;5083599;28;19909;-63
2024/03/18 12:58:07;;;;;;;;;;;23.50;50.00;;;;;;5079901;28;19908;-64
2024/03/18 13:00:33;;;;;;;;;;;23.50;50.00;;;;;;5083155;28;20003;-64
2024/03/18 13:02:59;;;;;;;;;;;23.50;50.00;;;;;;5081236;28;19912;-62
2024/03/18 13:05:24;;;;;;;;;;;23.50;50.00;;;;;;5080554;28;20391;-63
2024/03/18 13:07:50;;;;;;;;;;;23.50;49.90;;;;;;5081664;28;19957;-63
2024/03/18 13:10:17;;;;;;;;;;;23.50;50.00;;;;;;5082930;28;20042;-62
2024/03/18 13:12:43;;;;;;;;;;;23.50;50.10;;;;;;5083863;28;19912;-63
2024/03/18 13:15:09;;;;;;;;;;;23.50;50.10;;;;;;5082635;28;19915;-63
2024/03/18 13:17:35;;;;;;;;;;;23.50;50.10;;;;;;5079506;28;19986;-63
2024/03/18 13:20:04;;;;;;;;;;;23.50;50.10;;;;;;5096165;28;20038;-62
2024/03/18 13:22:31;;;;;;;;;;;23.50;50.00;;;;;;5082937;28;19920;-63
2024/03/18 13:24:57;;;;;;;;;;;23.50;50.00;;;;;;5082272;28;20349;-63
2024/03/18 13:27:25;;;;;;;;;;;23.50;49.90;;;;;;5080641;28;19922;-63
2024/03/18 13:29:50;;;;;;;;;;;23.50;50.00;;;;;;5081980;28;19908;-63
2024/03/18 13:32:19;;;;;;;;;;;23.50;49.90;;;;;;5080422;28;19999;-63
2024/03/18 13:34:45;;;;;;;;;;;23.50;49.90;;;;;;5080739;28;19970;-63
2024/03/18 13:37:11;;;;;;;;;;;23.50;49.90;;;;;;5080441;28;19958;-64
2024/03/18 13:39:38;;;;;;;;;;;23.50;49.80;;;;;;5081510;28;19990;-63
2024/03/18 13:42:09;;;;;;;;;;;23.50;49.90;;;;;;5081538;28;20299;-62
2024/03/18 13:44:35;;;;;;;;;;;23.50;49.90;;;;;;5080927;28;19919;-63
2024/03/18 13:47:01;;;;;;;;;;;23.50;49.80;;;;;;5081308;28;19908;-62
2024/03/18 13:49:32;;;;;;;;;;;23.50;49.80;;;;;;5080497;28;19989;-63
2024/03/18 13:51:58;;;;;;;;;;;23.50;49.90;;;;;;5080855;28;19904;-65
2024/03/18 13:54:23;;;;;;;;;;;23.50;49.80;;;;;;5080358;28;19918;-65
2024/03/18 13:56:49;;;;;;;;;;;23.50;49.90;;;;;;5064242;28;20023;-66
2024/03/18 13:59:14;;;;;;;;;;;23.50;49.90;;;;;;5078709;28;19908;-66
2024/03/18 14:01:40;;;;;;;;;;;23.50;49.90;;;;;;5081287;28;19904;-66
2024/03/18 14:04:06;;;;;;;;;;;23.50;49.80;;;;;;5081278;28;19984;-66
2024/03/18 14:06:31;;;;;;;;;;;23.50;49.90;;;;;;5079333;28;19955;-66
2024/03/18 14:08:57;;;;;;;;;;;23.50;49.80;;;;;;5078846;28;19915;-66
2024/03/18 14:11:22;;;;;;;;;;;23.50;49.80;;;;;;5080328;28;19907;-64
2024/03/18 14:13:48;;;;;;;;;;;23.50;49.80;;;;;;5079012;28;20010;-64